sensor_id;sensor_type;location;lat;lon;timestamp;P1;durP1;ratioP1;P2;durP2;ratioP2
70270;SDS011;57680;54.292;18.598;2024-03-23T00:52:51;17.37;;;4.27;;
70270;SDS011;57680;54.292;18.598;2024-03-23T00:55:17;15.68;;;3.88;;
70270;SDS011;57680;54.292;18.598;2024-03-23T00:57:42;13.83;;;3.70;;
70270;SDS011;57680;54.292;18.598;2024-03-23T01:00:07;16.13;;;3.70;;
70270;SDS011;57680;54.292;18.598;2024-03-23T01:02:33;15.65;;;3.88;;
70270;SDS011;57680;54.292;18.598;2024-03-23T01:04:58;17.70;;;3.67;;
70270;SDS011;57680;54.292;18.598;2024-03-23T01:07:23;12.53;;;3.60;;
70270;SDS011;57680;54.292;18.598;2024-03-23T01:09:49;15.97;;;3.97;;
70270;SDS011;57680;54.292;18.598;2024-03-23T01:12:14;11.77;;;4.40;;
70270;SDS011;57680;54.292;18.598;2024-03-23T01:14:39;13.30;;;3.97;;
70270;SDS011;57680;54.292;18.598;2024-03-23T01:17:05;18.40;;;4.70;;
70270;SDS011;57680;54.292;18.598;2024-03-23T01:19:30;14.37;;;3.83;;
70270;SDS011;57680;54.292;18.598;2024-03-23T01:21:55;14.30;;;3.60;;
70270;SDS011;57680;54.292;18.598;2024-03-23T01:24:21;15.27;;;4.17;;
70270;SDS011;57680;54.292;18.598;2024-03-23T01:26:46;15.83;;;3.90;;
70270;SDS011;57680;54.292;18.598;2024-03-23T01:29:11;12.87;;;3.60;;
70270;SDS011;57680;54.292;18.598;2024-03-23T01:31:36;16.83;;;3.80;;
70270;SDS011;57680;54.292;18.598;2024-03-23T01:34:02;17.27;;;3.97;;
70270;SDS011;57680;54.292;18.598;2024-03-23T01:36:27;12.03;;;4.53;;
70270;SDS011;57680;54.292;18.598;2024-03-23T01:38:52;17.97;;;3.90;;
70270;SDS011;57680;54.292;18.598;2024-03-23T01:41:18;20.07;;;3.80;;
70270;SDS011;57680;54.292;18.598;2024-03-23T01:43:43;16.60;;;4.00;;
70270;SDS011;57680;54.292;18.598;2024-03-23T01:46:08;16.83;;;3.93;;
70270;SDS011;57680;54.292;18.598;2024-03-23T01:48:34;13.50;;;3.53;;
70270;SDS011;57680;54.292;18.598;2024-03-23T01:50:59;18.03;;;3.87;;
70270;SDS011;57680;54.292;18.598;2024-03-23T01:53:25;19.80;;;4.20;;
70270;SDS011;57680;54.292;18.598;2024-03-23T01:55:50;16.05;;;4.43;;
70270;SDS011;57680;54.292;18.598;2024-03-23T01:58:16;15.03;;;4.17;;
70270;SDS011;57680;54.292;18.598;2024-03-23T02:00:41;18.33;;;4.47;;
70270;SDS011;57680;54.292;18.598;2024-03-23T02:03:27;17.03;;;4.00;;
70270;SDS011;57680;54.292;18.598;2024-03-23T02:05:55;20.75;;;4.65;;
70270;SDS011;57680;54.292;18.598;2024-03-23T02:08:22;18.80;;;4.07;;
70270;SDS011;57680;54.292;18.598;2024-03-23T02:10:48;17.00;;;3.97;;
70270;SDS011;57680;54.292;18.598;2024-03-23T02:13:14;21.33;;;4.23;;
70270;SDS011;57680;54.292;18.598;2024-03-23T02:15:40;13.98;;;3.88;;
70270;SDS011;57680;54.292;18.598;2024-03-23T02:18:06;18.73;;;4.50;;
70270;SDS011;57680;54.292;18.598;2024-03-23T02:20:32;17.92;;;3.65;;
70270;SDS011;57680;54.292;18.598;2024-03-23T02:22:58;15.27;;;3.93;;
70270;SDS011;57680;54.292;18.598;2024-03-23T02:25:23;16.83;;;3.87;;
70270;SDS011;57680;54.292;18.598;2024-03-23T02:27:48;15.93;;;3.40;;
70270;SDS011;57680;54.292;18.598;2024-03-23T02:30:14;18.67;;;3.53;;
70270;SDS011;57680;54.292;18.598;2024-03-23T02:32:39;14.90;;;3.60;;
70270;SDS011;57680;54.292;18.598;2024-03-23T02:35:04;16.77;;;3.20;;
70270;SDS011;57680;54.292;18.598;2024-03-23T02:37:30;14.63;;;3.43;;
70270;SDS011;57680;54.292;18.598;2024-03-23T02:39:55;16.10;;;3.50;;
70270;SDS011;57680;54.292;18.598;2024-03-23T02:42:21;19.30;;;3.73;;
70270;SDS011;57680;54.292;18.598;2024-03-23T02:44:46;19.90;;;3.87;;
70270;SDS011;57680;54.292;18.598;2024-03-23T02:47:11;16.10;;;3.50;;
70270;SDS011;57680;54.292;18.598;2024-03-23T02:49:36;17.67;;;3.50;;
70270;SDS011;57680;54.292;18.598;2024-03-23T02:52:02;17.47;;;3.77;;
70270;SDS011;57680;54.292;18.598;2024-03-23T02:54:27;17.10;;;3.53;;
70270;SDS011;57680;54.292;18.598;2024-03-23T02:56:53;17.83;;;3.20;;
70270;SDS011;57680;54.292;18.598;2024-03-23T02:59:18;19.07;;;4.03;;
70270;SDS011;57680;54.292;18.598;2024-03-23T03:01:43;13.80;;;3.63;;
70270;SDS011;57680;54.292;18.598;2024-03-23T03:04:08;17.33;;;3.75;;
70270;SDS011;57680;54.292;18.598;2024-03-23T03:06:34;18.73;;;3.63;;
70270;SDS011;57680;54.292;18.598;2024-03-23T03:08:59;18.80;;;3.33;;
70270;SDS011;57680;54.292;18.598;2024-03-23T03:11:24;14.87;;;3.30;;
70270;SDS011;57680;54.292;18.598;2024-03-23T03:13:50;15.03;;;3.43;;
70270;SDS011;57680;54.292;18.598;2024-03-23T03:16:15;17.63;;;3.53;;
70270;SDS011;57680;54.292;18.598;2024-03-23T03:18:40;15.40;;;3.27;;
70270;SDS011;57680;54.292;18.598;2024-03-23T03:21:06;17.13;;;5.03;;
70270;SDS011;57680;54.292;18.598;2024-03-23T03:23:31;18.85;;;4.57;;
70270;SDS011;57680;54.292;18.598;2024-03-23T03:25:57;14.87;;;3.57;;
70270;SDS011;57680;54.292;18.598;2024-03-23T03:28:22;17.43;;;3.17;;
70270;SDS011;57680;54.292;18.598;2024-03-23T03:30:48;17.20;;;3.70;;
70270;SDS011;57680;54.292;18.598;2024-03-23T03:33:13;18.15;;;3.38;;
70270;SDS011;57680;54.292;18.598;2024-03-23T03:35:38;21.73;;;4.10;;
70270;SDS011;57680;54.292;18.598;2024-03-23T03:38:04;21.47;;;3.73;;
70270;SDS011;57680;54.292;18.598;2024-03-23T03:40:29;16.80;;;3.50;;
70270;SDS011;57680;54.292;18.598;2024-03-23T03:42:54;15.80;;;3.43;;
70270;SDS011;57680;54.292;18.598;2024-03-23T03:45:20;18.65;;;3.40;;
70270;SDS011;57680;54.292;18.598;2024-03-23T03:47:45;17.83;;;3.30;;
70270;SDS011;57680;54.292;18.598;2024-03-23T03:50:10;18.43;;;3.50;;
70270;SDS011;57680;54.292;18.598;2024-03-23T03:52:36;16.20;;;3.43;;
70270;SDS011;57680;54.292;18.598;2024-03-23T03:55:01;20.97;;;3.63;;
70270;SDS011;57680;54.292;18.598;2024-03-23T03:57:27;18.25;;;4.00;;
70270;SDS011;57680;54.292;18.598;2024-03-23T03:59:53;16.47;;;3.73;;
70270;SDS011;57680;54.292;18.598;2024-03-23T04:02:18;23.20;;;3.93;;
70270;SDS011;57680;54.292;18.598;2024-03-23T04:04:43;20.27;;;3.77;;
70270;SDS011;57680;54.292;18.598;2024-03-23T04:07:09;15.02;;;3.40;;
70270;SDS011;57680;54.292;18.598;2024-03-23T04:09:34;14.47;;;3.20;;
70270;SDS011;57680;54.292;18.598;2024-03-23T04:11:59;20.67;;;3.80;;
70270;SDS011;57680;54.292;18.598;2024-03-23T04:14:25;16.97;;;3.83;;
70270;SDS011;57680;54.292;18.598;2024-03-23T04:16:50;21.43;;;4.00;;
70270;SDS011;57680;54.292;18.598;2024-03-23T04:19:15;15.30;;;3.60;;
70270;SDS011;57680;54.292;18.598;2024-03-23T04:21:41;17.17;;;3.83;;
70270;SDS011;57680;54.292;18.598;2024-03-23T04:24:06;17.38;;;4.28;;
70270;SDS011;57680;54.292;18.598;2024-03-23T04:26:40;18.20;;;4.40;;
70270;SDS011;57680;54.292;18.598;2024-03-23T04:29:08;14.82;;;3.45;;
70270;SDS011;57680;54.292;18.598;2024-03-23T04:31:33;19.73;;;4.03;;
70270;SDS011;57680;54.292;18.598;2024-03-23T04:33:59;17.97;;;4.20;;
70270;SDS011;57680;54.292;18.598;2024-03-23T04:36:24;20.70;;;3.37;;
70270;SDS011;57680;54.292;18.598;2024-03-23T04:38:49;17.33;;;3.60;;
70270;SDS011;57680;54.292;18.598;2024-03-23T04:41:15;15.80;;;3.63;;
70270;SDS011;57680;54.292;18.598;2024-03-23T04:43:40;14.67;;;3.13;;
70270;SDS011;57680;54.292;18.598;2024-03-23T04:46:05;19.47;;;4.00;;
70270;SDS011;57680;54.292;18.598;2024-03-23T04:48:30;17.17;;;3.23;;
70270;SDS011;57680;54.292;18.598;2024-03-23T04:50:57;14.63;;;3.37;;
70270;SDS011;57680;54.292;18.598;2024-03-23T04:53:23;17.85;;;3.38;;
70270;SDS011;57680;54.292;18.598;2024-03-23T04:55:49;13.57;;;3.22;;
70270;SDS011;57680;54.292;18.598;2024-03-23T04:58:15;17.90;;;3.40;;
70270;SDS011;57680;54.292;18.598;2024-03-23T05:00:40;17.13;;;3.40;;
70270;SDS011;57680;54.292;18.598;2024-03-23T05:03:05;18.83;;;3.20;;
70270;SDS011;57680;54.292;18.598;2024-03-23T05:05:31;20.27;;;3.83;;
70270;SDS011;57680;54.292;18.598;2024-03-23T05:07:56;16.08;;;3.22;;
70270;SDS011;57680;54.292;18.598;2024-03-23T05:10:22;18.13;;;3.67;;
70270;SDS011;57680;54.292;18.598;2024-03-23T05:12:47;19.47;;;3.53;;
70270;SDS011;57680;54.292;18.598;2024-03-23T05:15:12;19.60;;;3.27;;
70270;SDS011;57680;54.292;18.598;2024-03-23T05:17:38;15.70;;;3.13;;
70270;SDS011;57680;54.292;18.598;2024-03-23T05:20:04;15.77;;;3.30;;
70270;SDS011;57680;54.292;18.598;2024-03-23T05:22:30;19.35;;;3.53;;
70270;SDS011;57680;54.292;18.598;2024-03-23T05:24:55;18.87;;;3.83;;
70270;SDS011;57680;54.292;18.598;2024-03-23T05:27:20;23.30;;;4.17;;
70270;SDS011;57680;54.292;18.598;2024-03-23T05:29:46;20.13;;;4.00;;
70270;SDS011;57680;54.292;18.598;2024-03-23T05:32:11;18.57;;;3.50;;
70270;SDS011;57680;54.292;18.598;2024-03-23T05:34:36;17.97;;;3.93;;
70270;SDS011;57680;54.292;18.598;2024-03-23T05:37:02;19.63;;;3.67;;
70270;SDS011;57680;54.292;18.598;2024-03-23T05:39:27;18.77;;;3.67;;
70270;SDS011;57680;54.292;18.598;2024-03-23T05:41:53;19.48;;;4.03;;
70270;SDS011;57680;54.292;18.598;2024-03-23T05:44:18;18.53;;;3.50;;
70270;SDS011;57680;54.292;18.598;2024-03-23T05:46:44;15.70;;;3.80;;
70270;SDS011;57680;54.292;18.598;2024-03-23T05:49:09;18.97;;;3.73;;
70270;SDS011;57680;54.292;18.598;2024-03-23T05:51:34;22.97;;;4.00;;
70270;SDS011;57680;54.292;18.598;2024-03-23T05:53:59;13.30;;;3.20;;
70270;SDS011;57680;54.292;18.598;2024-03-23T05:56:25;14.77;;;3.33;;
70270;SDS011;57680;54.292;18.598;2024-03-23T05:58:51;19.67;;;3.70;;
70270;SDS011;57680;54.292;18.598;2024-03-23T06:01:16;20.87;;;3.23;;
70270;SDS011;57680;54.292;18.598;2024-03-23T06:03:41;18.93;;;3.33;;
70270;SDS011;57680;54.292;18.598;2024-03-23T06:06:07;19.73;;;3.23;;
70270;SDS011;57680;54.292;18.598;2024-03-23T06:08:32;16.60;;;3.77;;
70270;SDS011;57680;54.292;18.598;2024-03-23T06:10:57;16.30;;;3.70;;
70270;SDS011;57680;54.292;18.598;2024-03-23T06:13:22;19.30;;;4.10;;
70270;SDS011;57680;54.292;18.598;2024-03-23T06:15:48;16.30;;;3.33;;
70270;SDS011;57680;54.292;18.598;2024-03-23T06:18:13;12.00;;;2.67;;
70270;SDS011;57680;54.292;18.598;2024-03-23T06:20:38;11.57;;;2.50;;
70270;SDS011;57680;54.292;18.598;2024-03-23T06:23:04;14.47;;;3.00;;
70270;SDS011;57680;54.292;18.598;2024-03-23T06:25:29;12.70;;;2.90;;
70270;SDS011;57680;54.292;18.598;2024-03-23T06:27:55;16.93;;;2.90;;
70270;SDS011;57680;54.292;18.598;2024-03-23T06:30:20;14.82;;;3.20;;
70270;SDS011;57680;54.292;18.598;2024-03-23T06:32:45;20.60;;;3.53;;
70270;SDS011;57680;54.292;18.598;2024-03-23T06:35:11;17.87;;;3.30;;
70270;SDS011;57680;54.292;18.598;2024-03-23T06:37:36;16.13;;;3.50;;
70270;SDS011;57680;54.292;18.598;2024-03-23T06:40:03;15.65;;;3.65;;
70270;SDS011;57680;54.292;18.598;2024-03-23T06:42:29;19.13;;;3.63;;
70270;SDS011;57680;54.292;18.598;2024-03-23T06:44:54;14.57;;;3.30;;
70270;SDS011;57680;54.292;18.598;2024-03-23T06:47:19;18.07;;;3.20;;
70270;SDS011;57680;54.292;18.598;2024-03-23T06:49:44;15.37;;;3.20;;
70270;SDS011;57680;54.292;18.598;2024-03-23T06:52:10;17.20;;;3.43;;
70270;SDS011;57680;54.292;18.598;2024-03-23T06:54:35;17.17;;;3.43;;
70270;SDS011;57680;54.292;18.598;2024-03-23T06:57:00;12.83;;;2.57;;
70270;SDS011;57680;54.292;18.598;2024-03-23T06:59:26;14.93;;;2.70;;
70270;SDS011;57680;54.292;18.598;2024-03-23T07:01:51;17.37;;;3.10;;
70270;SDS011;57680;54.292;18.598;2024-03-23T07:04:16;18.75;;;3.67;;
70270;SDS011;57680;54.292;18.598;2024-03-23T07:06:42;17.70;;;3.07;;
70270;SDS011;57680;54.292;18.598;2024-03-23T07:09:08;16.88;;;3.15;;
70270;SDS011;57680;54.292;18.598;2024-03-23T07:11:33;17.17;;;2.83;;
70270;SDS011;57680;54.292;18.598;2024-03-23T07:13:59;17.27;;;3.20;;
70270;SDS011;57680;54.292;18.598;2024-03-23T07:16:26;15.47;;;3.17;;
70270;SDS011;57680;54.292;18.598;2024-03-23T07:18:51;13.40;;;2.88;;
70270;SDS011;57680;54.292;18.598;2024-03-23T07:21:17;13.70;;;3.07;;
70270;SDS011;57680;54.292;18.598;2024-03-23T07:23:42;10.13;;;2.97;;
70270;SDS011;57680;54.292;18.598;2024-03-23T07:26:08;14.25;;;4.05;;
70270;SDS011;57680;54.292;18.598;2024-03-23T07:28:33;19.27;;;3.20;;
70270;SDS011;57680;54.292;18.598;2024-03-23T07:31:02;14.37;;;3.37;;
70270;SDS011;57680;54.292;18.598;2024-03-23T07:33:28;17.00;;;3.60;;
70270;SDS011;57680;54.292;18.598;2024-03-23T07:35:53;14.57;;;3.50;;
70270;SDS011;57680;54.292;18.598;2024-03-23T07:38:19;16.33;;;3.30;;
70270;SDS011;57680;54.292;18.598;2024-03-23T07:40:44;14.50;;;3.27;;
70270;SDS011;57680;54.292;18.598;2024-03-23T07:43:09;15.07;;;3.13;;
70270;SDS011;57680;54.292;18.598;2024-03-23T07:45:35;11.80;;;3.03;;
70270;SDS011;57680;54.292;18.598;2024-03-23T07:48:00;13.17;;;3.20;;
70270;SDS011;57680;54.292;18.598;2024-03-23T07:50:25;10.73;;;2.90;;
70270;SDS011;57680;54.292;18.598;2024-03-23T07:52:50;14.10;;;2.63;;
70270;SDS011;57680;54.292;18.598;2024-03-23T07:55:16;9.87;;;2.87;;
70270;SDS011;57680;54.292;18.598;2024-03-23T07:57:41;19.47;;;3.90;;
70270;SDS011;57680;54.292;18.598;2024-03-23T08:00:07;12.27;;;3.43;;
70270;SDS011;57680;54.292;18.598;2024-03-23T08:02:32;13.50;;;3.30;;
70270;SDS011;57680;54.292;18.598;2024-03-23T08:04:58;12.27;;;2.93;;
70270;SDS011;57680;54.292;18.598;2024-03-23T08:07:23;10.77;;;3.30;;
70270;SDS011;57680;54.292;18.598;2024-03-23T08:09:48;14.57;;;2.90;;
70270;SDS011;57680;54.292;18.598;2024-03-23T08:12:13;10.67;;;2.33;;
70270;SDS011;57680;54.292;18.598;2024-03-23T08:14:39;10.30;;;2.87;;
70270;SDS011;57680;54.292;18.598;2024-03-23T08:17:04;13.27;;;2.53;;
70270;SDS011;57680;54.292;18.598;2024-03-23T08:19:29;13.50;;;2.87;;
70270;SDS011;57680;54.292;18.598;2024-03-23T08:21:54;14.00;;;2.30;;
70270;SDS011;57680;54.292;18.598;2024-03-23T08:24:20;11.87;;;2.27;;
70270;SDS011;57680;54.292;18.598;2024-03-23T08:26:45;12.37;;;2.90;;
70270;SDS011;57680;54.292;18.598;2024-03-23T08:29:11;12.97;;;2.57;;
70270;SDS011;57680;54.292;18.598;2024-03-23T08:31:36;9.95;;;2.50;;
70270;SDS011;57680;54.292;18.598;2024-03-23T08:34:01;13.43;;;2.60;;
70270;SDS011;57680;54.292;18.598;2024-03-23T08:36:27;16.10;;;2.90;;
70270;SDS011;57680;54.292;18.598;2024-03-23T08:38:52;10.93;;;2.73;;
70270;SDS011;57680;54.292;18.598;2024-03-23T08:41:17;9.00;;;2.30;;
70270;SDS011;57680;54.292;18.598;2024-03-23T08:43:42;14.27;;;2.93;;
70270;SDS011;57680;54.292;18.598;2024-03-23T08:46:14;9.43;;;2.67;;
70270;SDS011;57680;54.292;18.598;2024-03-23T08:48:41;14.10;;;2.45;;
70270;SDS011;57680;54.292;18.598;2024-03-23T08:51:08;11.80;;;1.80;;
70270;SDS011;57680;54.292;18.598;2024-03-23T08:53:37;10.13;;;1.60;;
70270;SDS011;57680;54.292;18.598;2024-03-23T08:56:03;4.88;;;0.93;;
70270;SDS011;57680;54.292;18.598;2024-03-23T08:58:30;4.87;;;1.00;;
70270;SDS011;57680;54.292;18.598;2024-03-23T09:00:57;3.03;;;0.60;;
70270;SDS011;57680;54.292;18.598;2024-03-23T09:03:28;6.60;;;1.27;;
70270;SDS011;57680;54.292;18.598;2024-03-23T09:05:53;4.97;;;1.37;;
70270;SDS011;57680;54.292;18.598;2024-03-23T09:08:19;6.80;;;2.03;;
70270;SDS011;57680;54.292;18.598;2024-03-23T09:10:44;9.43;;;1.60;;
70270;SDS011;57680;54.292;18.598;2024-03-23T09:13:10;10.27;;;1.97;;
70270;SDS011;57680;54.292;18.598;2024-03-23T09:15:36;8.50;;;2.10;;
70270;SDS011;57680;54.292;18.598;2024-03-23T09:18:03;8.13;;;1.73;;
70270;SDS011;57680;54.292;18.598;2024-03-23T09:20:28;10.57;;;2.08;;
70270;SDS011;57680;54.292;18.598;2024-03-23T09:22:54;8.03;;;1.90;;
70270;SDS011;57680;54.292;18.598;2024-03-23T09:25:19;10.93;;;2.13;;
70270;SDS011;57680;54.292;18.598;2024-03-23T09:27:46;9.90;;;1.80;;
70270;SDS011;57680;54.292;18.598;2024-03-23T09:30:11;9.38;;;1.70;;
70270;SDS011;57680;54.292;18.598;2024-03-23T09:32:37;6.07;;;1.63;;
70270;SDS011;57680;54.292;18.598;2024-03-23T09:35:03;6.35;;;1.35;;
70270;SDS011;57680;54.292;18.598;2024-03-23T09:37:28;7.40;;;2.10;;
70270;SDS011;57680;54.292;18.598;2024-03-23T09:39:53;5.43;;;1.60;;
70270;SDS011;57680;54.292;18.598;2024-03-23T09:42:19;6.90;;;1.57;;
70270;SDS011;57680;54.292;18.598;2024-03-23T09:44:44;8.50;;;1.70;;
70270;SDS011;57680;54.292;18.598;2024-03-23T09:47:09;6.87;;;1.60;;
70270;SDS011;57680;54.292;18.598;2024-03-23T09:49:35;6.80;;;1.75;;
70270;SDS011;57680;54.292;18.598;2024-03-23T09:52:00;5.97;;;1.73;;
70270;SDS011;57680;54.292;18.598;2024-03-23T09:54:26;10.10;;;2.50;;
70270;SDS011;57680;54.292;18.598;2024-03-23T09:56:51;6.23;;;1.40;;
70270;SDS011;57680;54.292;18.598;2024-03-23T09:59:16;8.40;;;1.50;;
70270;SDS011;57680;54.292;18.598;2024-03-23T10:01:42;5.07;;;1.33;;
70270;SDS011;57680;54.292;18.598;2024-03-23T10:04:08;6.50;;;1.40;;
70270;SDS011;57680;54.292;18.598;2024-03-23T10:06:33;9.10;;;1.60;;
70270;SDS011;57680;54.292;18.598;2024-03-23T10:08:58;5.88;;;1.17;;
70270;SDS011;57680;54.292;18.598;2024-03-23T10:11:24;7.27;;;1.33;;
70270;SDS011;57680;54.292;18.598;2024-03-23T10:13:49;4.17;;;0.93;;
70270;SDS011;57680;54.292;18.598;2024-03-23T10:16:21;4.47;;;1.20;;
70270;SDS011;57680;54.292;18.598;2024-03-23T10:18:47;5.78;;;1.05;;
70270;SDS011;57680;54.292;18.598;2024-03-23T10:21:13;5.53;;;1.20;;
70270;SDS011;57680;54.292;18.598;2024-03-23T10:23:40;5.18;;;1.05;;
70270;SDS011;57680;54.292;18.598;2024-03-23T10:26:19;6.88;;;1.42;;
70270;SDS011;57680;54.292;18.598;2024-03-23T10:28:56;5.32;;;1.42;;
70270;SDS011;57680;54.292;18.598;2024-03-23T10:31:25;4.47;;;1.13;;
70270;SDS011;57680;54.292;18.598;2024-03-23T10:33:50;3.43;;;1.20;;
70270;SDS011;57680;54.292;18.598;2024-03-23T10:36:16;5.03;;;1.30;;
70270;SDS011;57680;54.292;18.598;2024-03-23T10:38:44;9.38;;;1.50;;
70270;SDS011;57680;54.292;18.598;2024-03-23T10:41:09;4.60;;;1.20;;
70270;SDS011;57680;54.292;18.598;2024-03-23T10:43:35;7.90;;;1.93;;
70270;SDS011;57680;54.292;18.598;2024-03-23T10:46:01;5.22;;;1.48;;
70270;SDS011;57680;54.292;18.598;2024-03-23T10:48:27;6.95;;;1.70;;
70270;SDS011;57680;54.292;18.598;2024-03-23T10:50:52;8.20;;;1.50;;
70270;SDS011;57680;54.292;18.598;2024-03-23T10:53:18;5.67;;;1.70;;
70270;SDS011;57680;54.292;18.598;2024-03-23T10:55:46;7.53;;;1.73;;
70270;SDS011;57680;54.292;18.598;2024-03-23T10:58:12;6.70;;;1.70;;
70270;SDS011;57680;54.292;18.598;2024-03-23T11:00:37;6.67;;;2.00;;
70270;SDS011;57680;54.292;18.598;2024-03-23T11:06:04;7.80;;;1.70;;
70270;SDS011;57680;54.292;18.598;2024-03-23T11:08:34;8.07;;;1.52;;
70270;SDS011;57680;54.292;18.598;2024-03-23T11:11:19;6.35;;;1.58;;
70270;SDS011;57680;54.292;18.598;2024-03-23T11:13:49;7.40;;;1.95;;
70270;SDS011;57680;54.292;18.598;2024-03-23T11:16:22;6.07;;;1.37;;
70270;SDS011;57680;54.292;18.598;2024-03-23T11:18:48;7.63;;;1.70;;
70270;SDS011;57680;54.292;18.598;2024-03-23T11:24:18;4.43;;;1.48;;
70270;SDS011;57680;54.292;18.598;2024-03-23T11:26:43;8.23;;;1.80;;
70270;SDS011;57680;54.292;18.598;2024-03-23T11:29:12;7.17;;;1.60;;
70270;SDS011;57680;54.292;18.598;2024-03-23T11:31:38;8.45;;;1.50;;
70270;SDS011;57680;54.292;18.598;2024-03-23T11:34:04;7.03;;;1.47;;
70270;SDS011;57680;54.292;18.598;2024-03-23T11:36:30;6.80;;;1.80;;
70270;SDS011;57680;54.292;18.598;2024-03-23T11:38:55;5.93;;;1.40;;
70270;SDS011;57680;54.292;18.598;2024-03-23T11:41:21;7.23;;;1.50;;
70270;SDS011;57680;54.292;18.598;2024-03-23T11:43:46;5.13;;;1.58;;
70270;SDS011;57680;54.292;18.598;2024-03-23T11:46:11;6.43;;;1.50;;
70270;SDS011;57680;54.292;18.598;2024-03-23T11:48:50;7.80;;;1.52;;
70270;SDS011;57680;54.292;18.598;2024-03-23T11:51:15;6.13;;;1.30;;
70270;SDS011;57680;54.292;18.598;2024-03-23T11:53:42;5.32;;;1.58;;
70270;SDS011;57680;54.292;18.598;2024-03-23T11:56:07;7.60;;;1.70;;
70270;SDS011;57680;54.292;18.598;2024-03-23T11:58:34;7.23;;;1.90;;
70270;SDS011;57680;54.292;18.598;2024-03-23T12:01:00;8.53;;;1.90;;
70270;SDS011;57680;54.292;18.598;2024-03-23T12:03:27;5.50;;;1.55;;
70270;SDS011;57680;54.292;18.598;2024-03-23T12:05:53;7.75;;;1.80;;
70270;SDS011;57680;54.292;18.598;2024-03-23T12:08:23;7.17;;;1.80;;
70270;SDS011;57680;54.292;18.598;2024-03-23T12:11:04;6.53;;;1.42;;
70270;SDS011;57680;54.292;18.598;2024-03-23T12:13:30;7.43;;;1.85;;
70270;SDS011;57680;54.292;18.598;2024-03-23T12:15:57;6.33;;;1.50;;
70270;SDS011;57680;54.292;18.598;2024-03-23T12:18:44;8.02;;;1.80;;
70270;SDS011;57680;54.292;18.598;2024-03-23T12:21:10;5.60;;;1.75;;
70270;SDS011;57680;54.292;18.598;2024-03-23T12:23:35;7.73;;;1.70;;
70270;SDS011;57680;54.292;18.598;2024-03-23T12:26:03;5.93;;;2.13;;
70270;SDS011;57680;54.292;18.598;2024-03-23T12:28:28;7.60;;;1.90;;
70270;SDS011;57680;54.292;18.598;2024-03-23T12:30:54;5.63;;;1.63;;
70270;SDS011;57680;54.292;18.598;2024-03-23T12:33:22;6.67;;;1.60;;
70270;SDS011;57680;54.292;18.598;2024-03-23T12:35:48;6.78;;;1.52;;
70270;SDS011;57680;54.292;18.598;2024-03-23T12:38:13;7.28;;;1.90;;
70270;SDS011;57680;54.292;18.598;2024-03-23T12:40:39;5.67;;;1.57;;
70270;SDS011;57680;54.292;18.598;2024-03-23T12:43:04;5.00;;;1.70;;
70270;SDS011;57680;54.292;18.598;2024-03-23T12:45:29;6.97;;;1.70;;
70270;SDS011;57680;54.292;18.598;2024-03-23T12:47:55;6.03;;;2.07;;
70270;SDS011;57680;54.292;18.598;2024-03-23T12:50:20;8.38;;;1.90;;
70270;SDS011;57680;54.292;18.598;2024-03-23T12:52:46;10.53;;;2.20;;
70270;SDS011;57680;54.292;18.598;2024-03-23T12:55:11;6.18;;;1.73;;
70270;SDS011;57680;54.292;18.598;2024-03-23T12:57:37;8.20;;;2.10;;
70270;SDS011;57680;54.292;18.598;2024-03-23T13:00:02;9.67;;;1.87;;
70270;SDS011;57680;54.292;18.598;2024-03-23T13:02:28;6.78;;;2.22;;
70270;SDS011;57680;54.292;18.598;2024-03-23T13:04:54;8.37;;;2.17;;
70270;SDS011;57680;54.292;18.598;2024-03-23T13:07:20;6.47;;;2.13;;
70270;SDS011;57680;54.292;18.598;2024-03-23T13:09:46;7.93;;;2.15;;
70270;SDS011;57680;54.292;18.598;2024-03-23T13:12:11;6.97;;;1.83;;
70270;SDS011;57680;54.292;18.598;2024-03-23T13:14:38;7.85;;;2.15;;
70270;SDS011;57680;54.292;18.598;2024-03-23T13:17:04;7.03;;;2.00;;
70270;SDS011;57680;54.292;18.598;2024-03-23T13:19:29;7.75;;;2.42;;
70270;SDS011;57680;54.292;18.598;2024-03-23T13:21:55;8.23;;;2.37;;
70270;SDS011;57680;54.292;18.598;2024-03-23T13:24:23;9.53;;;2.27;;
70270;SDS011;57680;54.292;18.598;2024-03-23T13:26:49;8.60;;;2.40;;
70270;SDS011;57680;54.292;18.598;2024-03-23T13:29:15;7.95;;;2.40;;
70270;SDS011;57680;54.292;18.598;2024-03-23T13:31:41;7.40;;;2.97;;
70270;SDS011;57680;54.292;18.598;2024-03-23T13:34:06;7.53;;;2.30;;
70270;SDS011;57680;54.292;18.598;2024-03-23T13:36:32;9.47;;;2.40;;
70270;SDS011;57680;54.292;18.598;2024-03-23T13:38:57;9.60;;;2.80;;
70270;SDS011;57680;54.292;18.598;2024-03-23T13:41:22;8.37;;;2.80;;
70270;SDS011;57680;54.292;18.598;2024-03-23T13:43:49;10.30;;;3.43;;
70270;SDS011;57680;54.292;18.598;2024-03-23T13:46:14;8.55;;;2.50;;
70270;SDS011;57680;54.292;18.598;2024-03-23T13:48:39;9.30;;;2.77;;
70270;SDS011;57680;54.292;18.598;2024-03-23T13:51:05;10.40;;;2.80;;
70270;SDS011;57680;54.292;18.598;2024-03-23T13:53:30;12.93;;;5.40;;
70270;SDS011;57680;54.292;18.598;2024-03-23T13:55:56;10.10;;;3.92;;
70270;SDS011;57680;54.292;18.598;2024-03-23T13:58:21;11.17;;;3.63;;
70270;SDS011;57680;54.292;18.598;2024-03-23T14:00:47;9.47;;;3.20;;
70270;SDS011;57680;54.292;18.598;2024-03-23T14:03:13;8.00;;;3.20;;
70270;SDS011;57680;54.292;18.598;2024-03-23T14:05:39;10.30;;;3.10;;
70270;SDS011;57680;54.292;18.598;2024-03-23T14:08:06;7.82;;;2.97;;
70270;SDS011;57680;54.292;18.598;2024-03-23T14:10:35;8.50;;;3.20;;
70270;SDS011;57680;54.292;18.598;2024-03-23T14:13:01;7.40;;;3.03;;
70270;SDS011;57680;54.292;18.598;2024-03-23T14:15:27;9.02;;;2.80;;
70270;SDS011;57680;54.292;18.598;2024-03-23T14:17:52;9.32;;;2.78;;
70270;SDS011;57680;54.292;18.598;2024-03-23T14:20:18;8.00;;;2.77;;
70270;SDS011;57680;54.292;18.598;2024-03-23T14:22:43;10.80;;;3.30;;
70270;SDS011;57680;54.292;18.598;2024-03-23T14:25:08;10.93;;;3.10;;
70270;SDS011;57680;54.292;18.598;2024-03-23T14:27:34;8.73;;;2.90;;
70270;SDS011;57680;54.292;18.598;2024-03-23T14:29:59;11.43;;;3.13;;
70270;SDS011;57680;54.292;18.598;2024-03-23T14:32:24;9.00;;;2.90;;
70270;SDS011;57680;54.292;18.598;2024-03-23T14:34:50;11.43;;;3.67;;
70270;SDS011;57680;54.292;18.598;2024-03-23T14:37:15;9.43;;;3.23;;
70270;SDS011;57680;54.292;18.598;2024-03-23T14:39:40;8.40;;;3.08;;
70270;SDS011;57680;54.292;18.598;2024-03-23T14:42:06;12.27;;;3.63;;
70270;SDS011;57680;54.292;18.598;2024-03-23T14:44:32;7.53;;;2.47;;
70270;SDS011;57680;54.292;18.598;2024-03-23T14:46:57;9.37;;;3.50;;
70270;SDS011;57680;54.292;18.598;2024-03-23T14:49:22;11.90;;;3.67;;
70270;SDS011;57680;54.292;18.598;2024-03-23T14:51:48;10.63;;;4.53;;
70270;SDS011;57680;54.292;18.598;2024-03-23T14:54:14;9.75;;;4.10;;
70270;SDS011;57680;54.292;18.598;2024-03-23T14:56:39;8.77;;;3.57;;
70270;SDS011;57680;54.292;18.598;2024-03-23T14:59:05;11.13;;;3.63;;
70270;SDS011;57680;54.292;18.598;2024-03-23T15:01:30;8.97;;;3.37;;
70270;SDS011;57680;54.292;18.598;2024-03-23T15:03:55;10.03;;;3.00;;
70270;SDS011;57680;54.292;18.598;2024-03-23T15:06:21;8.83;;;2.70;;
70270;SDS011;57680;54.292;18.598;2024-03-23T15:08:46;7.83;;;3.23;;
70270;SDS011;57680;54.292;18.598;2024-03-23T15:11:11;8.20;;;2.27;;
70270;SDS011;57680;54.292;18.598;2024-03-23T15:13:37;8.97;;;2.70;;
70270;SDS011;57680;54.292;18.598;2024-03-23T15:16:03;19.95;;;6.60;;